createdAt,value
2022-10-03T00:01:28.657Z,92.25
2022-10-03T00:04:04.876Z,93.07
2022-10-03T00:07:11.619Z,92.89
2022-10-03T00:09:41.126Z,93.27
2022-10-03T00:12:08.125Z,93.14
2022-10-03T00:14:54.858Z,92.97
2022-10-03T00:17:25.097Z,92.91
2022-10-03T00:19:52.504Z,92.57
2022-10-03T00:22:26.283Z,92.47
2022-10-03T00:25:02.660Z,92.84
2022-10-03T00:27:33.152Z,92.94
2022-10-03T00:30:02.492Z,92.65
2022-10-03T00:32:31.731Z,92.50
2022-10-03T00:35:01.406Z,92.50
2022-10-03T00:37:38.310Z,92.55
2022-10-03T00:40:24.478Z,92.36
2022-10-03T00:43:10.588Z,92.22
2022-10-03T00:45:50.698Z,91.96
2022-10-03T00:48:26.838Z,91.86
2022-10-03T00:51:11.968Z,92.15
2022-10-03T00:53:39.061Z,92.41
2022-10-03T00:56:21.754Z,92.86
2022-10-03T00:59:02.541Z,92.96
2022-10-03T01:01:43.457Z,93.36
2022-10-03T01:04:13.840Z,94.08
2022-10-03T01:06:49.307Z,94.37
2022-10-03T01:09:19.781Z,94.78
2022-10-03T01:11:50.947Z,94.78
2022-10-03T01:14:18.109Z,94.30
2022-10-03T01:16:57.283Z,93.94
2022-10-03T01:19:30.233Z,94.39
2022-10-03T01:22:17.586Z,94.14
2022-10-03T01:24:50.850Z,93.41
2022-10-03T01:27:25.499Z,93.97
2022-10-03T01:30:16.317Z,94.04
2022-10-03T01:33:02.984Z,94.10
2022-10-03T01:35:40.337Z,94.12
2022-10-03T01:38:25.361Z,94.32
2022-10-03T01:40:55.449Z,94.23
2022-10-03T01:43:32.337Z,94.71
2022-10-03T01:45:59.635Z,94.73
2022-10-03T01:48:26.646Z,94.90
2022-10-03T01:50:59.655Z,95.24
2022-10-03T01:53:41.117Z,95.64
2022-10-03T01:56:27.063Z,96.23
2022-10-03T01:58:58.203Z,96.66
2022-10-03T02:01:54.727Z,97.02
2022-10-03T02:04:27.763Z,97.35
2022-10-03T02:07:06.815Z,98.01
2022-10-03T02:09:38.653Z,98.62
2022-10-03T02:12:14.211Z,99.03
2022-10-03T02:15:00.762Z,99.19
2022-10-03T02:17:42.356Z,99.71
2022-10-03T02:20:13.924Z,100.00
2022-10-03T02:22:45.793Z,100.00
2022-10-03T02:25:21.045Z,100.00
2022-10-03T02:28:06.957Z,100.00
2022-10-03T02:30:52.608Z,100.00
2022-10-03T02:33:38.458Z,100.00
2022-10-03T02:36:05.483Z,100.00
2022-10-03T02:38:51.446Z,100.00
2022-10-03T02:41:24.373Z,100.00
2022-10-03T02:43:51.383Z,100.00
2022-10-03T02:46:18.461Z,100.00
2022-10-03T02:49:04.106Z,100.00
2022-10-03T02:51:34.030Z,100.00
2022-10-03T02:54:13.050Z,100.00
2022-10-03T02:57:04.729Z,100.00
2022-10-03T02:59:39.044Z,100.00
2022-10-03T03:02:24.861Z,100.00
2022-10-03T03:05:10.513Z,99.92
2022-10-03T03:07:59.188Z,99.93
2022-10-03T03:10:44.846Z,99.51
2022-10-03T03:13:31.114Z,99.59
2022-10-03T03:15:58.190Z,99.51
2022-10-03T03:18:25.304Z,99.51
2022-10-03T03:20:55.134Z,99.31
2022-10-03T03:23:29.364Z,99.24
2022-10-03T03:26:08.422Z,99.20
2022-10-03T03:28:54.890Z,99.08
2022-10-03T03:31:34.988Z,99.07
2022-10-03T03:34:07.650Z,99.17
2022-10-03T03:36:41.653Z,98.95
2022-10-03T03:39:08.932Z,99.00
2022-10-03T03:41:36.425Z,99.00
2022-10-03T03:44:06.785Z,99.05
2022-10-03T03:46:38.793Z,99.15
2022-10-03T03:49:24.698Z,99.22
2022-10-03T03:52:12.376Z,99.17
2022-10-03T03:54:45.321Z,99.03
2022-10-03T03:57:16.143Z,99.17
2022-10-03T03:59:50.222Z,99.17
2022-10-03T04:02:20.465Z,99.18
2022-10-03T04:05:07.980Z,99.21
2022-10-03T04:07:49.275Z,99.10
2022-10-03T04:10:20.913Z,99.25
2022-10-03T04:12:48.695Z,99.17
2022-10-03T04:15:35.523Z,99.27
2022-10-03T04:18:40.480Z,99.26
2022-10-03T04:21:19.074Z,99.59
2022-10-03T04:24:04.933Z,99.51
2022-10-03T04:26:52.015Z,99.56
2022-10-03T04:29:25.045Z,99.54
2022-10-03T04:31:52.099Z,99.77
2022-10-03T04:34:23.353Z,99.84
2022-10-03T04:37:06.126Z,99.77
2022-10-03T04:39:51.385Z,100.00
2022-10-03T04:42:19.347Z,99.59
2022-10-03T04:44:56.322Z,99.46
2022-10-03T04:47:27.585Z,98.68
2022-10-03T04:49:57.716Z,98.69
2022-10-03T04:52:39.405Z,98.78
2022-10-03T04:55:25.268Z,99.27
2022-10-03T04:58:05.250Z,99.57
2022-10-03T05:00:52.948Z,99.48
2022-10-03T05:03:36.885Z,99.30
2022-10-03T05:06:20.424Z,99.10
2022-10-03T05:08:52.595Z,99.08
2022-10-03T05:11:19.705Z,99.23
2022-10-03T05:13:59.896Z,99.81
2022-10-03T05:16:33.460Z,99.75
2022-10-03T05:19:19.614Z,99.40
2022-10-03T05:21:56.511Z,99.07
2022-10-03T05:24:31.397Z,98.65
2022-10-03T05:27:13.801Z,98.40
2022-10-03T05:29:45.986Z,97.78
2022-10-03T05:32:22.856Z,97.18
2022-10-03T05:35:03.393Z,96.91
2022-10-03T05:37:48.840Z,96.67
2022-10-03T05:40:25.456Z,96.24
2022-10-03T05:42:56.086Z,95.90
2022-10-03T05:45:24.438Z,95.01
2022-10-03T05:47:57.954Z,94.57
2022-10-03T05:50:36.507Z,94.26
2022-10-03T05:53:36.200Z,93.02
2022-10-03T05:56:03.294Z,92.80
2022-10-03T05:58:37.184Z,92.74
2022-10-03T06:01:07.156Z,92.03
2022-10-03T06:03:37.882Z,91.59
2022-10-03T06:06:09.072Z,91.72
2022-10-03T06:08:56.185Z,91.77
2022-10-03T06:11:42.377Z,91.84
2022-10-03T06:14:18.645Z,91.36
2022-10-03T06:17:04.935Z,90.79
2022-10-03T06:19:51.007Z,90.48
2022-10-03T06:22:21.350Z,89.94
2022-10-03T06:25:00.063Z,89.95
2022-10-03T06:27:46.010Z,89.37
2022-10-03T06:30:48.582Z,88.09
2022-10-03T06:33:25.606Z,87.37
2022-10-03T06:36:10.969Z,86.92
2022-10-03T06:38:56.529Z,86.66
2022-10-03T06:41:42.993Z,85.75
2022-10-03T06:44:41.154Z,85.41
2022-10-03T06:47:20.424Z,85.42
2022-10-03T06:50:06.704Z,84.98
2022-10-03T06:52:52.488Z,84.28
2022-10-03T06:55:38.016Z,83.44
2022-10-03T06:58:07.775Z,82.79
2022-10-03T07:00:54.513Z,81.94
2022-10-03T07:03:21.747Z,81.72
2022-10-03T07:06:01.333Z,81.91
2022-10-03T07:08:31.089Z,80.86
2022-10-03T07:11:00.887Z,81.35
2022-10-03T07:13:40.236Z,81.79
2022-10-03T07:16:26.390Z,81.72
2022-10-03T07:18:58.900Z,81.96
2022-10-03T07:21:44.219Z,81.74
2022-10-03T07:24:11.334Z,82.12
2022-10-03T07:26:39.621Z,81.84
2022-10-03T07:29:06.696Z,77.97
2022-10-03T07:31:44.145Z,80.72
2022-10-03T07:34:14.282Z,80.68
2022-10-03T07:37:06.976Z,77.47
2022-10-03T07:39:34.079Z,78.51
2022-10-03T07:42:17.502Z,80.79
2022-10-03T07:45:03.450Z,81.42
2022-10-03T07:47:49.351Z,80.89
2022-10-03T07:50:18.637Z,80.23
2022-10-03T07:52:48.570Z,79.30
2022-10-03T07:55:18.365Z,73.26
2022-10-03T07:57:57.094Z,75.29
2022-10-03T08:00:47.592Z,76.27
2022-10-03T08:03:17.817Z,75.11
2022-10-03T08:06:03.618Z,75.77
2022-10-03T08:08:50.524Z,76.89
2022-10-03T08:11:37.003Z,77.13
2022-10-03T08:14:13.487Z,78.15
2022-10-03T08:16:46.576Z,78.14
2022-10-03T08:19:19.528Z,77.45
2022-10-03T08:21:46.521Z,76.27
2022-10-03T08:24:17.721Z,75.94
2022-10-03T08:26:47.893Z,74.66
2022-10-03T08:29:24.054Z,68.39
2022-10-03T08:32:06.252Z,71.07
2022-10-03T08:34:42.290Z,72.42
2022-10-03T08:37:15.482Z,72.98
2022-10-03T08:39:45.415Z,72.21
2022-10-03T08:42:31.006Z,72.11
2022-10-03T08:45:10.237Z,64.66
2022-10-03T08:47:46.973Z,61.47
2022-10-03T08:50:34.304Z,68.36
2022-10-03T08:53:04.366Z,71.01
2022-10-03T08:55:32.435Z,71.28
2022-10-03T08:58:05.489Z,69.22
2022-10-03T09:00:52.756Z,72.51
2022-10-03T09:03:34.237Z,72.20
2022-10-03T09:06:13.400Z,70.76
2022-10-03T09:08:59.358Z,72.91
2022-10-03T09:11:38.775Z,72.19
2022-10-03T09:14:12.024Z,73.54
2022-10-03T09:16:48.283Z,74.22
2022-10-03T09:19:21.581Z,69.83
2022-10-03T09:21:51.406Z,70.30
2022-10-03T09:24:31.641Z,72.27
2022-10-03T09:27:04.750Z,67.90
2022-10-03T09:29:34.982Z,67.52
2022-10-03T09:32:20.695Z,67.87
2022-10-03T09:35:07.478Z,70.72
2022-10-03T09:37:38.209Z,69.89
2022-10-03T09:40:08.093Z,55.56
2022-10-03T09:42:54.398Z,49.13
2022-10-03T09:45:21.840Z,48.75
2022-10-03T09:48:07.688Z,53.57
2022-10-03T09:50:47.061Z,50.87
2022-10-03T09:53:27.477Z,54.71
2022-10-03T09:56:13.223Z,53.05
2022-10-03T09:58:43.059Z,45.75
2022-10-03T10:01:10.131Z,45.18
2022-10-03T10:03:43.787Z,40.26
2022-10-03T10:06:14.144Z,44.51
2022-10-03T10:08:51.285Z,53.25
2022-10-03T10:11:32.874Z,54.33
2022-10-03T10:14:21.733Z,46.62
2022-10-03T10:17:10.728Z,47.85
2022-10-03T10:19:37.980Z,46.42
2022-10-03T10:22:24.899Z,44.75
2022-10-03T10:25:07.277Z,42.19
2022-10-03T10:27:35.176Z,51.14
2022-10-03T10:30:21.305Z,55.19
2022-10-03T10:32:48.337Z,55.64
2022-10-03T10:35:30.546Z,48.84
2022-10-03T10:38:15.347Z,43.11
2022-10-03T10:40:48.527Z,41.06
2022-10-03T10:43:15.887Z,41.37
2022-10-03T10:46:01.693Z,46.04
2022-10-03T10:48:47.393Z,45.47
2022-10-03T10:51:47.234Z,45.83
2022-10-03T10:54:14.223Z,47.47
2022-10-03T10:56:43.033Z,45.46
2022-10-03T10:59:29.434Z,47.40
2022-10-03T11:02:17.188Z,49.36
2022-10-03T11:04:44.225Z,48.45
2022-10-03T11:07:14.526Z,46.71
2022-10-03T11:10:00.241Z,49.06
2022-10-03T11:12:39.339Z,47.04
2022-10-03T11:15:25.112Z,44.86
2022-10-03T11:17:54.975Z,48.81
2022-10-03T11:20:41.671Z,51.25
2022-10-03T11:23:27.228Z,51.77
2022-10-03T11:26:12.895Z,51.59
2022-10-03T11:28:40.322Z,50.82
2022-10-03T11:31:16.284Z,49.40
2022-10-03T11:34:02.316Z,48.56
2022-10-03T11:36:48.492Z,49.29
2022-10-03T11:39:21.294Z,49.44
2022-10-03T11:42:06.640Z,47.92
2022-10-03T11:44:37.886Z,48.97
2022-10-03T11:47:21.069Z,48.93
2022-10-03T11:49:51.257Z,49.64
2022-10-03T11:52:34.857Z,49.84
2022-10-03T11:55:20.959Z,48.31
2022-10-03T11:57:51.777Z,47.76
2022-10-03T12:00:23.297Z,50.16
2022-10-03T12:03:09.474Z,50.62
2022-10-03T12:05:53.010Z,53.94
2022-10-03T12:08:40.981Z,53.06
2022-10-03T12:11:11.458Z,52.98
2022-10-03T12:13:41.545Z,50.30
2022-10-03T12:16:25.862Z,46.39
2022-10-03T12:18:54.748Z,46.30
2022-10-03T12:21:37.499Z,47.44
2022-10-03T12:24:14.337Z,44.58
2022-10-03T12:26:44.101Z,44.94
2022-10-03T12:29:14.369Z,44.06
2022-10-03T12:31:43.142Z,44.30
2022-10-03T12:34:29.619Z,42.30
2022-10-03T12:36:56.644Z,41.48
2022-10-03T12:39:42.162Z,42.13
2022-10-03T12:42:09.859Z,41.12
2022-10-03T12:44:46.302Z,40.14
2022-10-03T12:47:51.102Z,39.64
2022-10-03T12:50:14.529Z,39.66
2022-10-03T12:52:47.079Z,39.84
2022-10-03T12:55:20.546Z,41.07
2022-10-03T12:57:55.151Z,40.75
2022-10-03T13:00:24.023Z,39.88
2022-10-03T13:03:03.422Z,40.58
2022-10-03T13:05:30.630Z,39.94
2022-10-03T13:08:06.884Z,40.20
2022-10-03T13:10:50.970Z,40.76
2022-10-03T13:13:18.026Z,40.88
2022-10-03T13:16:05.970Z,39.62
2022-10-03T13:18:36.252Z,39.61
2022-10-03T13:21:03.323Z,41.61
2022-10-03T13:23:32.184Z,41.83
2022-10-03T13:26:00.037Z,40.77
2022-10-03T13:28:31.476Z,40.99
2022-10-03T13:31:01.685Z,41.20
2022-10-03T13:33:29.522Z,40.93
2022-10-03T13:36:02.621Z,40.24
2022-10-03T13:38:46.222Z,40.65
2022-10-03T13:41:13.332Z,40.22
2022-10-03T13:43:42.137Z,40.92
2022-10-03T13:46:29.399Z,39.74
2022-10-03T13:49:01.753Z,39.88
2022-10-03T13:51:35.001Z,39.79
2022-10-03T13:54:09.209Z,40.22
2022-10-03T13:56:44.002Z,39.78
2022-10-03T13:59:10.999Z,39.80
2022-10-03T14:01:59.684Z,39.39
2022-10-03T14:04:42.403Z,40.63
2022-10-03T14:07:25.195Z,40.86
2022-10-03T14:10:00.464Z,41.20
2022-10-03T14:12:51.209Z,40.21
2022-10-03T14:15:18.601Z,40.21
2022-10-03T14:17:50.994Z,40.36
2022-10-03T14:20:37.219Z,41.14
2022-10-03T14:23:16.246Z,43.07
2022-10-03T14:25:56.461Z,43.02
2022-10-03T14:28:42.378Z,43.17
2022-10-03T14:31:09.551Z,45.13
2022-10-03T14:33:46.897Z,46.13
2022-10-03T14:36:16.789Z,47.83
2022-10-03T14:39:00.708Z,49.29
2022-10-03T14:41:35.670Z,53.34
2022-10-03T14:44:29.129Z,55.12
2022-10-03T14:47:01.117Z,57.51
2022-10-03T14:49:53.542Z,59.46
2022-10-03T14:52:20.207Z,61.01
2022-10-03T14:54:50.521Z,62.69
2022-10-03T14:57:23.852Z,62.49
2022-10-03T14:59:53.273Z,63.58
2022-10-03T15:02:38.813Z,63.78
2022-10-03T15:05:11.387Z,65.02
2022-10-03T15:07:39.226Z,65.55
2022-10-03T15:10:09.283Z,66.53
2022-10-03T15:12:36.851Z,66.82
2022-10-03T15:15:24.718Z,67.02
2022-10-03T15:17:53.442Z,67.92
2022-10-03T15:20:24.291Z,68.53
2022-10-03T15:22:52.203Z,68.49
2022-10-03T15:25:41.792Z,67.82
2022-10-03T15:28:09.550Z,68.43
2022-10-03T15:30:37.754Z,67.17
2022-10-03T15:33:11.137Z,67.13
2022-10-03T15:35:41.588Z,67.94
2022-10-03T15:38:16.830Z,68.00
2022-10-03T15:41:07.156Z,68.29
2022-10-03T15:43:38.231Z,68.37
2022-10-03T15:46:25.826Z,69.03
2022-10-03T15:48:53.122Z,69.37
2022-10-03T15:51:20.175Z,69.46
2022-10-03T15:53:48.122Z,70.05
2022-10-03T15:56:35.514Z,70.82
2022-10-03T15:59:04.506Z,71.37
2022-10-03T16:01:42.070Z,71.11
2022-10-03T16:04:19.003Z,71.76
2022-10-03T16:06:47.784Z,72.86
2022-10-03T16:09:17.852Z,73.11
2022-10-03T16:11:45.429Z,74.14
2022-10-03T16:14:15.373Z,74.32
2022-10-03T16:16:47.323Z,74.66
2022-10-03T16:19:31.395Z,75.46
2022-10-03T16:22:12.767Z,75.74
2022-10-03T16:24:46.010Z,76.07
2022-10-03T16:27:25.950Z,76.46
2022-10-03T16:29:54.302Z,76.46
2022-10-03T16:32:24.893Z,76.64
2022-10-03T16:34:51.937Z,76.57
2022-10-03T16:37:23.825Z,76.55
2022-10-03T16:39:53.192Z,76.73
2022-10-03T16:42:21.465Z,77.23
2022-10-03T16:44:48.526Z,77.78
2022-10-03T16:47:16.128Z,77.82
2022-10-03T16:50:04.909Z,77.95
2022-10-03T16:52:35.122Z,77.88
2022-10-03T16:55:05.170Z,78.48
2022-10-03T16:57:36.211Z,78.31
2022-10-03T17:00:05.967Z,78.39
2022-10-03T17:02:33.357Z,79.04
2022-10-03T17:05:02.485Z,79.12
2022-10-03T17:07:37.236Z,79.57
2022-10-03T17:10:04.445Z,79.38
2022-10-03T17:12:37.230Z,79.83
2022-10-03T17:15:05.497Z,80.24
2022-10-03T17:17:34.374Z,80.30
2022-10-03T17:20:05.505Z,80.72
2022-10-03T17:22:41.339Z,80.59
2022-10-03T17:25:29.074Z,80.64
2022-10-03T17:27:56.366Z,80.89
2022-10-03T17:30:26.539Z,81.50
2022-10-03T17:32:56.585Z,81.32
2022-10-03T17:35:28.334Z,81.37
2022-10-03T17:38:30.593Z,81.41
2022-10-03T17:41:14.897Z,81.92
2022-10-03T17:44:01.491Z,81.48
2022-10-03T17:46:34.496Z,81.59
2022-10-03T17:49:06.151Z,81.61
2022-10-03T17:51:41.953Z,81.97
2022-10-03T17:54:10.926Z,82.03
2022-10-03T17:56:38.199Z,82.46
2022-10-03T17:59:06.796Z,82.51
2022-10-03T18:01:37.413Z,82.54
2022-10-03T18:04:06.279Z,82.82
2022-10-03T18:06:35.467Z,82.96
2022-10-03T18:09:07.774Z,82.74
2022-10-03T18:11:35.281Z,82.30
2022-10-03T18:14:05.530Z,82.08
2022-10-03T18:16:35.130Z,82.45
2022-10-03T18:19:08.747Z,82.23
2022-10-03T18:21:54.499Z,82.79
2022-10-03T18:24:21.493Z,82.87
2022-10-03T18:26:49.613Z,82.93
2022-10-03T18:29:16.722Z,83.17
2022-10-03T18:31:45.382Z,82.99
2022-10-03T18:34:19.950Z,82.17
2022-10-03T18:36:48.236Z,82.73
2022-10-03T18:39:28.439Z,83.33
2022-10-03T18:41:58.637Z,83.46
2022-10-03T18:44:27.101Z,83.24
2022-10-03T18:47:04.960Z,83.15
2022-10-03T18:49:35.161Z,83.50
2022-10-03T18:52:10.776Z,83.12
2022-10-03T18:54:51.202Z,83.68
2022-10-03T18:57:27.377Z,84.02
2022-10-03T19:00:05.977Z,84.08
2022-10-03T19:02:47.038Z,84.25
2022-10-03T19:05:40.274Z,84.54
2022-10-03T19:08:36.879Z,84.70
2022-10-03T19:11:23.401Z,84.63
2022-10-03T19:13:56.927Z,84.98
2022-10-03T19:16:28.453Z,84.89
2022-10-03T19:19:03.526Z,84.90
2022-10-03T19:21:35.908Z,84.98
2022-10-03T19:24:05.693Z,85.20
2022-10-03T19:26:35.975Z,84.96
2022-10-03T19:29:04.446Z,85.33
2022-10-03T19:31:34.742Z,84.89
2022-10-03T19:34:05.936Z,84.95
2022-10-03T19:36:34.854Z,84.89
2022-10-03T19:39:02.541Z,84.38
2022-10-03T19:41:29.682Z,84.46
2022-10-03T19:44:00.276Z,84.06
2022-10-03T19:46:35.131Z,84.10
2022-10-03T19:49:05.079Z,84.34
2022-10-03T19:51:32.431Z,84.67
2022-10-03T19:54:00.107Z,84.56
2022-10-03T19:56:27.764Z,84.43
2022-10-03T19:59:13.897Z,84.41
2022-10-03T20:01:44.606Z,84.71
2022-10-03T20:04:12.870Z,84.82
2022-10-03T20:06:45.815Z,85.16
2022-10-03T20:09:23.269Z,85.35
2022-10-03T20:11:52.347Z,85.18
2022-10-03T20:14:23.634Z,85.39
2022-10-03T20:16:53.578Z,85.50
2022-10-03T20:19:22.457Z,85.68
2022-10-03T20:21:54.292Z,86.11
2022-10-03T20:24:26.896Z,86.35
2022-10-03T20:27:00.108Z,86.33
2022-10-03T20:29:31.241Z,86.60
2022-10-03T20:32:01.576Z,86.56
2022-10-03T20:34:29.574Z,87.01
2022-10-03T20:37:08.910Z,87.02
2022-10-03T20:39:36.529Z,87.36
2022-10-03T20:42:08.067Z,87.24
2022-10-03T20:44:55.503Z,87.45
2022-10-03T20:47:28.355Z,87.52
2022-10-03T20:49:59.009Z,87.45
2022-10-03T20:52:26.120Z,87.37
2022-10-03T20:54:53.766Z,87.30
2022-10-03T20:57:20.785Z,87.28
2022-10-03T20:59:56.916Z,87.55
2022-10-03T21:02:28.700Z,87.97
2022-10-03T21:04:56.082Z,87.93
2022-10-03T21:07:27.990Z,88.31
2022-10-03T21:09:55.167Z,88.31
2022-10-03T21:12:24.882Z,88.29
2022-10-03T21:14:53.030Z,89.54
2022-10-03T21:17:20.203Z,89.22
2022-10-03T21:20:01.366Z,89.55
2022-10-03T21:22:28.388Z,90.06
2022-10-03T21:24:56.956Z,89.99
2022-10-03T21:27:24.017Z,89.60
2022-10-03T21:29:54.906Z,89.61
2022-10-03T21:32:40.731Z,88.76
2022-10-03T21:35:16.708Z,88.48
2022-10-03T21:37:46.471Z,88.95
2022-10-03T21:40:16.388Z,89.01
2022-10-03T21:42:58.611Z,89.89
2022-10-03T21:45:25.642Z,89.64
2022-10-03T21:47:59.817Z,89.53
2022-10-03T21:50:30.643Z,90.14
2022-10-03T21:53:06.832Z,90.35
2022-10-03T21:55:52.550Z,90.33
2022-10-03T21:58:29.374Z,90.41
2022-10-03T22:00:56.786Z,90.43
2022-10-03T22:03:25.366Z,90.27
2022-10-03T22:05:52.386Z,89.76
2022-10-03T22:08:22.724Z,89.45
2022-10-03T22:10:57.216Z,89.59
2022-10-03T22:13:24.473Z,89.59
2022-10-03T22:15:53.752Z,89.09
2022-10-03T22:18:20.861Z,88.73
2022-10-03T22:20:56.781Z,88.28
2022-10-03T22:23:39.779Z,88.33
2022-10-03T22:26:18.295Z,88.01
2022-10-03T22:28:57.837Z,87.77
2022-10-03T22:31:33.943Z,87.63
2022-10-03T22:34:11.824Z,87.51
2022-10-03T22:36:38.915Z,87.27
2022-10-03T22:39:09.695Z,87.80
2022-10-03T22:41:36.903Z,88.07
2022-10-03T22:44:05.466Z,88.32
2022-10-03T22:46:33.004Z,88.63
2022-10-03T22:49:08.273Z,88.71
2022-10-03T22:51:35.543Z,89.02
2022-10-03T22:54:04.497Z,88.56
2022-10-03T22:56:45.316Z,89.05
2022-10-03T22:59:18.348Z,89.23
2022-10-03T23:01:46.276Z,89.07
2022-10-03T23:04:16.482Z,89.71
2022-10-03T23:06:49.376Z,89.97
2022-10-03T23:09:25.599Z,90.00
2022-10-03T23:11:53.448Z,90.48
2022-10-03T23:14:20.814Z,90.66
2022-10-03T23:17:06.090Z,91.02
2022-10-03T23:19:48.732Z,91.44
2022-10-03T23:22:17.360Z,91.92
2022-10-03T23:24:46.000Z,92.42
2022-10-03T23:27:32.131Z,92.61
2022-10-03T23:30:25.230Z,93.10
2022-10-03T23:32:54.375Z,93.39
2022-10-03T23:35:27.654Z,93.55
2022-10-03T23:37:54.671Z,93.74
2022-10-03T23:40:27.972Z,94.07
2022-10-03T23:43:04.194Z,94.13
2022-10-03T23:45:33.102Z,94.33
2022-10-03T23:48:07.408Z,94.83
2022-10-03T23:50:39.760Z,95.36
2022-10-03T23:53:07.235Z,95.92
2022-10-03T23:55:36.185Z,95.88
2022-10-03T23:58:03.408Z,95.91
